createdAt,value
2023-05-06T00:00:25.654Z,98664.92
2023-05-06T00:03:12.068Z,98661.20
2023-05-06T00:05:39.744Z,98661.30
2023-05-06T00:08:07.254Z,98664.11
2023-05-06T00:10:34.962Z,98671.98
2023-05-06T00:13:02.613Z,98672.25
2023-05-06T00:15:32.011Z,98671.80
2023-05-06T00:18:00.799Z,98666.61
2023-05-06T00:20:29.357Z,98663.42
2023-05-06T00:22:56.908Z,98662.45
2023-05-06T00:25:24.699Z,98658.45
2023-05-06T00:27:53.460Z,98651.52
2023-05-06T00:30:21.032Z,98650.15
2023-05-06T00:32:48.639Z,98649.67
2023-05-06T00:35:16.264Z,98643.36
2023-05-06T00:37:46.776Z,98644.25
2023-05-06T00:40:14.398Z,98640.44
2023-05-06T00:42:41.958Z,98640.06
2023-05-06T00:45:10.283Z,98642.76
2023-05-06T00:47:38.072Z,98643.41
2023-05-06T00:50:06.391Z,98638.23
2023-05-06T00:52:34.173Z,98640.95
2023-05-06T00:55:01.811Z,98640.28
2023-05-06T00:57:29.421Z,98639.07
2023-05-06T00:59:57.029Z,98638.46
2023-05-06T01:02:28.482Z,98637.59
2023-05-06T01:05:04.716Z,98635.92
2023-05-06T01:07:50.680Z,98630.50
2023-05-06T01:10:49.804Z,98634.58
2023-05-06T01:13:24.971Z,98632.38
2023-05-06T01:15:59.220Z,98634.92
2023-05-06T01:18:27.435Z,98637.77
2023-05-06T01:20:55.391Z,98636.29
2023-05-06T01:23:22.961Z,98637.70
2023-05-06T01:25:50.674Z,98640.65
2023-05-06T01:28:18.378Z,98637.70
2023-05-06T01:31:00.952Z,98638.14
2023-05-06T01:33:48.873Z,98637.17
2023-05-06T01:36:26.443Z,98636.73
2023-05-06T01:39:09.129Z,98638.68
2023-05-06T01:41:40.200Z,98635.81
2023-05-06T01:44:08.817Z,98634.66
2023-05-06T01:46:36.503Z,98635.84
2023-05-06T01:49:06.163Z,98635.88
2023-05-06T01:51:34.031Z,98637.74
2023-05-06T01:54:02.399Z,98633.98
2023-05-06T01:56:30.001Z,98632.57
2023-05-06T01:58:59.249Z,98626.45
2023-05-06T02:01:27.304Z,98627.69
2023-05-06T02:03:55.036Z,98629.27
2023-05-06T02:06:22.739Z,98626.00
2023-05-06T02:08:50.283Z,98621.07
2023-05-06T02:11:17.931Z,98619.84
2023-05-06T02:13:45.493Z,98617.96
2023-05-06T02:16:13.061Z,98612.86
2023-05-06T02:18:40.591Z,98610.33
2023-05-06T02:21:09.986Z,98603.93
2023-05-06T02:23:37.636Z,98602.88
2023-05-06T02:26:05.254Z,98599.13
2023-05-06T02:28:32.790Z,98599.39
2023-05-06T02:31:00.354Z,98596.93
2023-05-06T02:33:28.041Z,98595.13
2023-05-06T02:35:55.601Z,98597.38
2023-05-06T02:38:23.891Z,98597.94
2023-05-06T02:40:51.409Z,98602.23
2023-05-06T02:43:19.081Z,98599.20
2023-05-06T02:45:46.641Z,98597.15
2023-05-06T02:48:14.181Z,98596.70
2023-05-06T02:50:41.765Z,98593.30
2023-05-06T02:53:09.330Z,98595.33
2023-05-06T02:55:36.893Z,98598.42
2023-05-06T02:58:04.753Z,98598.08
2023-05-06T03:00:32.260Z,98597.61
2023-05-06T03:02:59.951Z,98598.33
2023-05-06T03:05:27.528Z,98594.20
2023-05-06T03:07:55.057Z,98598.02
2023-05-06T03:10:22.590Z,98601.80
2023-05-06T03:12:50.188Z,98603.70
2023-05-06T03:15:17.763Z,98601.69
2023-05-06T03:17:47.413Z,98600.63
2023-05-06T03:20:15.193Z,98597.20
2023-05-06T03:22:42.743Z,98596.45
2023-05-06T03:25:10.489Z,98591.23
2023-05-06T03:27:38.164Z,98589.93
2023-05-06T03:30:06.192Z,98588.24
2023-05-06T03:32:34.085Z,98588.12
2023-05-06T03:35:01.713Z,98591.39
2023-05-06T03:37:29.247Z,98589.89
2023-05-06T03:39:56.768Z,98589.92
2023-05-06T03:42:24.384Z,98587.31
2023-05-06T03:44:51.933Z,98591.17
2023-05-06T03:47:19.777Z,98597.06
2023-05-06T03:49:47.309Z,98599.04
2023-05-06T03:52:14.909Z,98604.61
2023-05-06T03:54:42.491Z,98606.73
2023-05-06T03:57:10.000Z,98605.10
2023-05-06T03:59:37.527Z,98609.73
2023-05-06T04:02:05.088Z,98608.62
2023-05-06T04:04:32.679Z,98613.91
2023-05-06T04:07:00.611Z,98615.02
2023-05-06T04:09:28.134Z,98614.02
2023-05-06T04:11:55.666Z,98613.57
2023-05-06T04:14:23.180Z,98612.52
2023-05-06T04:16:50.806Z,98607.63
2023-05-06T04:19:18.338Z,98611.94
2023-05-06T04:21:45.897Z,98608.94
2023-05-06T04:24:13.421Z,98607.27
2023-05-06T04:26:40.944Z,98609.23
2023-05-06T04:29:09.076Z,98604.55
2023-05-06T04:31:36.661Z,98603.91
2023-05-06T04:34:04.263Z,98599.04
2023-05-06T04:36:31.856Z,98595.12
2023-05-06T04:38:59.377Z,98596.69
2023-05-06T04:41:26.937Z,98596.36
2023-05-06T04:43:54.465Z,98597.48
2023-05-06T04:46:22.115Z,98595.83
2023-05-06T04:48:49.726Z,98597.87
2023-05-06T04:51:17.382Z,98591.27
2023-05-06T04:53:44.933Z,98587.38
2023-05-06T04:56:12.470Z,98581.42
2023-05-06T04:58:39.987Z,98581.48
2023-05-06T05:01:09.221Z,98577.60
2023-05-06T05:03:36.940Z,98581.09
2023-05-06T05:06:04.619Z,98580.52
2023-05-06T05:08:32.130Z,98589.25
2023-05-06T05:10:59.677Z,98594.05
2023-05-06T05:13:27.231Z,98598.33
2023-05-06T05:15:55.105Z,98597.98
2023-05-06T05:18:22.917Z,98595.94
2023-05-06T05:20:50.443Z,98595.39
2023-05-06T05:23:17.952Z,98597.05
2023-05-06T05:25:45.478Z,98595.60
2023-05-06T05:28:13.081Z,98596.45
2023-05-06T05:30:40.638Z,98596.35
2023-05-06T05:33:08.255Z,98592.34
2023-05-06T05:35:35.925Z,98585.27
2023-05-06T05:38:03.444Z,98582.65
2023-05-06T05:40:30.971Z,98580.95
2023-05-06T05:42:58.973Z,98583.39
2023-05-06T05:45:26.526Z,98578.98
2023-05-06T05:47:54.198Z,98581.46
2023-05-06T05:50:21.964Z,98579.33
2023-05-06T05:52:49.492Z,98578.27
2023-05-06T05:55:17.068Z,98578.40
2023-05-06T05:57:44.618Z,98574.86
2023-05-06T06:00:13.570Z,98566.71
2023-05-06T06:02:41.475Z,98564.71
2023-05-06T06:05:09.384Z,98564.88
2023-05-06T06:07:37.549Z,98558.52
2023-05-06T06:10:05.958Z,98558.71
2023-05-06T06:12:33.527Z,98561.60
2023-05-06T06:15:01.057Z,98556.19
2023-05-06T06:17:28.663Z,98556.19
2023-05-06T06:19:58.446Z,98552.92
2023-05-06T06:22:25.966Z,98550.23
2023-05-06T06:24:53.642Z,98549.82
2023-05-06T06:27:21.189Z,98551.04
2023-05-06T06:29:48.773Z,98551.20
2023-05-06T06:32:16.619Z,98544.22
2023-05-06T06:34:44.125Z,98543.48
2023-05-06T06:37:12.103Z,98546.24
2023-05-06T06:39:39.640Z,98542.65
2023-05-06T06:42:07.188Z,98540.25
2023-05-06T06:44:36.057Z,98541.52
2023-05-06T06:47:03.648Z,98542.87
2023-05-06T06:49:31.420Z,98541.52
2023-05-06T06:51:58.931Z,98538.98
2023-05-06T06:54:26.520Z,98535.70
2023-05-06T06:56:54.948Z,98538.49
2023-05-06T06:59:22.516Z,98528.95
2023-05-06T07:01:50.793Z,98521.23
2023-05-06T07:04:18.529Z,98523.64
2023-05-06T07:06:46.185Z,98517.17
2023-05-06T07:09:13.709Z,98516.80
2023-05-06T07:11:41.314Z,98515.96
2023-05-06T07:14:08.846Z,98516.42
2023-05-06T07:16:36.457Z,98506.50
2023-05-06T07:19:03.992Z,98499.33
2023-05-06T07:21:31.547Z,98496.88
2023-05-06T07:23:59.410Z,98491.91
2023-05-06T07:26:27.033Z,98497.02
2023-05-06T07:28:54.674Z,98498.02
2023-05-06T07:31:22.223Z,98498.86
2023-05-06T07:33:49.984Z,98499.05
2023-05-06T07:36:17.570Z,98494.40
2023-05-06T07:38:45.094Z,98491.74
2023-05-06T07:41:12.647Z,98485.85
2023-05-06T07:43:40.159Z,98489.65
2023-05-06T07:46:07.951Z,98490.40
2023-05-06T07:48:35.631Z,98492.25
2023-05-06T07:51:03.837Z,98485.64
2023-05-06T07:53:31.363Z,98490.73
2023-05-06T07:55:58.989Z,98487.42
2023-05-06T07:58:26.520Z,98487.55
2023-05-06T08:00:54.249Z,98486.23
2023-05-06T08:03:21.961Z,98483.59
2023-05-06T08:05:53.235Z,98485.05
2023-05-06T08:08:22.170Z,98481.16
2023-05-06T08:10:49.699Z,98481.98
2023-05-06T08:13:17.262Z,98480.96
2023-05-06T08:15:44.969Z,98478.29
2023-05-06T08:18:21.475Z,98478.00
2023-05-06T08:20:50.657Z,98478.91
2023-05-06T08:23:18.316Z,98480.69
2023-05-06T08:25:45.912Z,98479.13
2023-05-06T08:28:13.491Z,98480.12
2023-05-06T08:30:41.006Z,98476.89
2023-05-06T08:33:08.583Z,98479.44
2023-05-06T08:35:36.167Z,98474.38
2023-05-06T08:38:03.719Z,98474.02
2023-05-06T08:40:31.482Z,98475.91
2023-05-06T08:42:59.988Z,98475.52
2023-05-06T08:45:29.499Z,98476.93
2023-05-06T08:47:57.276Z,98474.11
2023-05-06T08:50:25.608Z,98476.41
2023-05-06T08:52:53.210Z,98474.33
2023-05-06T08:55:22.333Z,98473.27
2023-05-06T08:57:52.592Z,98468.27
2023-05-06T09:00:20.280Z,98458.73
2023-05-06T09:02:47.970Z,98453.11
2023-05-06T09:05:15.590Z,98444.73
2023-05-06T09:07:43.129Z,98444.13
2023-05-06T09:10:14.988Z,98441.31
2023-05-06T09:12:42.572Z,98434.97
2023-05-06T09:15:11.165Z,98432.19
2023-05-06T09:17:39.042Z,98426.34
2023-05-06T09:20:07.245Z,98425.80
2023-05-06T09:22:38.553Z,98425.79
2023-05-06T09:25:07.065Z,98426.17
2023-05-06T09:27:35.572Z,98422.44
2023-05-06T09:30:06.206Z,98417.95
2023-05-06T09:32:35.735Z,98412.31
2023-05-06T09:35:05.540Z,98411.21
2023-05-06T09:37:33.129Z,98408.77
2023-05-06T09:40:00.883Z,98414.58
2023-05-06T09:42:29.666Z,98425.46
2023-05-06T09:45:01.540Z,98434.35
2023-05-06T09:47:33.980Z,98446.48
2023-05-06T09:50:03.524Z,98450.86
2023-05-06T09:52:31.198Z,98456.63
2023-05-06T09:54:59.691Z,98459.71
2023-05-06T09:57:28.831Z,98464.30
2023-05-06T09:59:58.140Z,98463.98
2023-05-06T10:02:27.296Z,98473.73
2023-05-06T10:04:56.720Z,98483.50
2023-05-06T10:07:25.623Z,98489.14
2023-05-06T10:09:54.551Z,98487.04
2023-05-06T10:12:22.478Z,98487.40
2023-05-06T10:21:49.661Z,98480.46
2023-05-06T10:24:18.499Z,98478.88
2023-05-06T10:26:46.071Z,98481.74
2023-05-06T10:29:13.778Z,98476.94
2023-05-06T10:31:48.149Z,98479.09
2023-05-06T10:34:19.370Z,98472.89
2023-05-06T10:36:48.751Z,98464.50
2023-05-06T10:39:16.948Z,98458.90
2023-05-06T10:41:44.664Z,98458.00
2023-05-06T10:44:12.299Z,98457.78
2023-05-06T10:47:00.130Z,98459.55
2023-05-06T10:49:27.789Z,98463.41
2023-05-06T10:52:15.488Z,98455.35
2023-05-06T10:54:51.159Z,98454.44
2023-05-06T10:57:19.369Z,98450.27
2023-05-06T10:59:47.496Z,98447.17
2023-05-06T11:02:19.635Z,98450.76
2023-05-06T11:04:51.760Z,98447.48
2023-05-06T11:07:23.983Z,98449.60
2023-05-06T11:09:59.972Z,98454.28
2023-05-06T11:12:46.316Z,98463.34
2023-05-06T11:15:38.130Z,98460.42
2023-05-06T11:18:24.199Z,98456.59
2023-05-06T11:21:11.809Z,98441.02
2023-05-06T11:23:42.271Z,98431.52
2023-05-06T11:26:11.198Z,98424.24
2023-05-06T11:28:39.683Z,98422.97
2023-05-06T11:31:08.213Z,98419.67
2023-05-06T11:33:37.229Z,98418.36
2023-05-06T11:36:05.442Z,98418.92
2023-05-06T11:38:50.544Z,98416.34
2023-05-06T11:41:19.218Z,98413.08
2023-05-06T11:43:47.939Z,98411.61
2023-05-06T11:46:15.858Z,98411.36
2023-05-06T11:48:43.707Z,98410.84
2023-05-06T11:51:11.275Z,98406.64
2023-05-06T11:53:38.829Z,98406.92
2023-05-06T11:56:06.920Z,98408.96
2023-05-06T11:58:34.606Z,98406.38
2023-05-06T12:01:04.297Z,98405.95
2023-05-06T12:03:33.190Z,98405.86
2023-05-06T12:06:01.409Z,98410.59
2023-05-06T12:08:34.385Z,98409.61
2023-05-06T12:11:08.035Z,98411.96
2023-05-06T12:13:40.178Z,98410.98
2023-05-06T12:16:08.727Z,98410.64
2023-05-06T12:18:37.206Z,98410.30
2023-05-06T12:21:04.962Z,98413.81
2023-05-06T12:23:32.587Z,98419.71
2023-05-06T12:26:05.694Z,98418.56
2023-05-06T12:28:35.359Z,98416.73
2023-05-06T12:31:22.926Z,98416.67
2023-05-06T12:33:50.787Z,98418.56
2023-05-06T12:36:19.006Z,98418.81
2023-05-06T12:38:54.700Z,98417.99
2023-05-06T12:41:34.162Z,98424.33
2023-05-06T12:44:01.759Z,98434.41
2023-05-06T12:46:29.426Z,98437.07
2023-05-06T12:49:01.116Z,98434.55
2023-05-06T12:51:29.662Z,98428.33
2023-05-06T12:53:57.183Z,98440.40
2023-05-06T12:56:25.000Z,98437.47
2023-05-06T12:59:02.813Z,98436.80
2023-05-06T13:01:30.395Z,98435.29
2023-05-06T13:03:57.972Z,98430.76
2023-05-06T13:06:25.532Z,98431.63
2023-05-06T13:08:53.068Z,98431.55
2023-05-06T13:11:20.753Z,98433.26
2023-05-06T13:13:48.301Z,98434.55
2023-05-06T13:16:16.072Z,98433.66
2023-05-06T13:18:43.687Z,98436.33
2023-05-06T13:21:11.213Z,98435.10
2023-05-06T13:23:38.734Z,98434.16
2023-05-06T13:26:06.446Z,98432.66
2023-05-06T13:28:34.244Z,98433.13
2023-05-06T13:31:01.822Z,98434.08
2023-05-06T13:33:29.443Z,98438.98
2023-05-06T13:35:57.516Z,98439.36
2023-05-06T13:38:25.090Z,98439.65
2023-05-06T13:40:54.112Z,98436.70
2023-05-06T13:43:22.663Z,98431.13
2023-05-06T13:45:50.423Z,98426.17
2023-05-06T13:48:18.117Z,98429.06
2023-05-06T13:50:46.428Z,98428.79
2023-05-06T13:53:16.745Z,98428.33
2023-05-06T13:55:44.374Z,98430.62
2023-05-06T13:58:12.042Z,98431.13
2023-05-06T14:00:39.567Z,98424.92
2023-05-06T14:03:07.158Z,98427.55
2023-05-06T14:05:35.480Z,98429.48
2023-05-06T14:08:03.409Z,98430.47
2023-05-06T14:10:30.997Z,98429.98
2023-05-06T14:12:58.578Z,98425.88
2023-05-06T14:15:26.124Z,98424.60
2023-05-06T14:17:53.696Z,98421.34
2023-05-06T14:20:21.388Z,98414.86
2023-05-06T14:22:48.880Z,98416.91
2023-05-06T14:25:16.473Z,98414.73
2023-05-06T14:27:44.225Z,98419.06
2023-05-06T14:30:12.234Z,98420.13
2023-05-06T14:32:39.763Z,98421.42
2023-05-06T14:35:08.242Z,98424.21
2023-05-06T14:37:35.960Z,98427.31
2023-05-06T14:40:05.484Z,98428.25
2023-05-06T14:42:32.991Z,98418.76
2023-05-06T14:45:00.529Z,98421.32
2023-05-06T14:47:28.067Z,98418.14
2023-05-06T14:49:55.628Z,98419.65
2023-05-06T14:52:23.161Z,98419.86
2023-05-06T14:54:50.734Z,98419.65
2023-05-06T14:57:18.304Z,98413.21
2023-05-06T14:59:45.842Z,98417.70
2023-05-06T15:02:13.360Z,98414.03
2023-05-06T15:04:40.935Z,98417.02
2023-05-06T15:07:08.444Z,98417.91
2023-05-06T15:09:35.973Z,98414.70
2023-05-06T15:12:03.738Z,98419.16
2023-05-06T15:14:31.249Z,98423.12
2023-05-06T15:16:58.902Z,98424.89
2023-05-06T15:19:26.570Z,98428.48
2023-05-06T15:21:54.068Z,98435.42
2023-05-06T15:24:21.750Z,98431.44
2023-05-06T15:26:49.501Z,98436.90
2023-05-06T15:29:17.086Z,98436.30
2023-05-06T15:31:45.084Z,98432.41
2023-05-06T15:34:13.544Z,98431.86
2023-05-06T15:36:41.520Z,98433.25
2023-05-06T15:39:09.278Z,98433.13
2023-05-06T15:41:38.290Z,98434.52
2023-05-06T15:44:06.537Z,98433.64
2023-05-06T15:46:34.394Z,98437.07
2023-05-06T15:49:29.576Z,98431.48
2023-05-06T15:51:49.517Z,98435.05
2023-05-06T15:54:17.052Z,98432.99
2023-05-06T15:56:45.587Z,98431.95
2023-05-06T15:59:13.364Z,98438.97
2023-05-06T16:02:24.467Z,98443.06
2023-05-06T16:04:29.862Z,98449.70
2023-05-06T16:06:57.637Z,98451.52
2023-05-06T16:09:25.225Z,98446.02
2023-05-06T16:11:52.753Z,98443.71
2023-05-06T16:14:20.764Z,98439.08
2023-05-06T16:16:48.362Z,98441.86
2023-05-06T16:19:15.905Z,98444.13
2023-05-06T16:21:43.418Z,98446.13
2023-05-06T16:24:10.981Z,98450.25
2023-05-06T16:26:38.522Z,98448.08
2023-05-06T16:29:06.229Z,98445.23
2023-05-06T16:31:33.854Z,98450.98
2023-05-06T16:34:01.440Z,98453.71
2023-05-06T16:36:28.988Z,98462.59
2023-05-06T16:38:56.495Z,98458.23
2023-05-06T16:41:24.141Z,98456.25
2023-05-06T16:43:51.662Z,98457.97
2023-05-06T16:46:19.664Z,98451.46
2023-05-06T16:48:48.155Z,98446.23
2023-05-06T16:51:15.814Z,98445.16
2023-05-06T16:53:43.371Z,98443.23
2023-05-06T16:56:10.988Z,98440.84
2023-05-06T16:58:38.593Z,98441.15
2023-05-06T17:01:06.486Z,98442.23
2023-05-06T17:03:34.733Z,98444.81
2023-05-06T17:06:02.386Z,98450.55
2023-05-06T17:11:01.435Z,98458.58
2023-05-06T17:13:29.649Z,98456.40
2023-05-06T17:15:57.166Z,98453.00
2023-05-06T17:18:24.692Z,98449.91
2023-05-06T17:20:56.491Z,98452.31
2023-05-06T17:23:25.047Z,98456.48
2023-05-06T17:25:52.598Z,98459.44
2023-05-06T17:28:20.152Z,98455.48
2023-05-06T17:30:47.806Z,98453.10
2023-05-06T17:33:15.433Z,98455.43
2023-05-06T17:35:43.020Z,98454.73
2023-05-06T17:38:11.815Z,98456.45
2023-05-06T17:40:39.480Z,98460.88
2023-05-06T17:43:07.020Z,98462.77
2023-05-06T17:45:34.593Z,98460.23
2023-05-06T17:48:02.206Z,98461.11
2023-05-06T17:50:29.967Z,98462.56
2023-05-06T17:52:57.527Z,98460.64
2023-05-06T17:55:25.171Z,98460.06
2023-05-06T17:57:52.820Z,98461.34
2023-05-06T18:00:20.809Z,98457.48
2023-05-06T18:02:48.524Z,98458.77
2023-05-06T18:05:16.995Z,98462.36
2023-05-06T18:07:44.585Z,98459.78
2023-05-06T18:10:12.161Z,98463.84
2023-05-06T18:12:39.910Z,98466.16
2023-05-06T18:15:08.241Z,98472.04
2023-05-06T18:17:36.306Z,98478.35
2023-05-06T18:20:04.519Z,98475.94
2023-05-06T18:22:32.342Z,98478.92
2023-05-06T18:24:59.915Z,98485.36
2023-05-06T18:27:27.466Z,98484.71
2023-05-06T18:29:55.125Z,98489.71
2023-05-06T18:32:22.695Z,98494.44
2023-05-06T18:34:50.288Z,98503.48
2023-05-06T18:37:17.965Z,98502.94
2023-05-06T18:39:45.722Z,98509.13
2023-05-06T18:42:13.344Z,98508.27
2023-05-06T18:44:42.665Z,98505.56
2023-05-06T18:47:10.266Z,98513.05
2023-05-06T18:49:37.949Z,98516.02
2023-05-06T18:52:05.533Z,98511.67
2023-05-06T18:54:33.147Z,98512.77
2023-05-06T18:57:00.986Z,98515.64
2023-05-06T18:59:28.613Z,98515.92
2023-05-06T19:01:56.179Z,98514.02
2023-05-06T19:04:24.822Z,98521.41
2023-05-06T19:06:52.442Z,98524.02
2023-05-06T19:09:20.104Z,98527.41
2023-05-06T19:11:47.665Z,98535.61
2023-05-06T19:14:15.329Z,98531.67
2023-05-06T19:16:42.955Z,98533.88
2023-05-06T19:19:10.565Z,98536.11
2023-05-06T19:21:38.124Z,98536.62
2023-05-06T19:24:07.125Z,98532.38
2023-05-06T19:26:36.248Z,98536.70
2023-05-06T19:29:03.842Z,98539.14
2023-05-06T19:31:31.618Z,98537.66
2023-05-06T19:33:59.308Z,98542.14
2023-05-06T19:36:26.940Z,98544.02
2023-05-06T19:38:54.485Z,98544.85
2023-05-06T19:41:24.375Z,98548.88
2023-05-06T19:43:52.057Z,98548.94
2023-05-06T19:46:19.900Z,98552.94
2023-05-06T19:48:47.635Z,98552.82
2023-05-06T19:51:15.210Z,98553.26
2023-05-06T19:53:42.884Z,98554.78
2023-05-06T19:56:12.393Z,98553.80
2023-05-06T19:58:40.526Z,98552.02
2023-05-06T20:01:09.009Z,98549.39
2023-05-06T20:03:37.055Z,98551.42
2023-05-06T20:06:04.857Z,98545.33
2023-05-06T20:08:32.411Z,98551.01
2023-05-06T20:10:59.984Z,98551.15
2023-05-06T20:13:27.694Z,98550.94
2023-05-06T20:15:55.360Z,98555.09
2023-05-06T20:18:23.094Z,98558.36
2023-05-06T20:20:50.717Z,98563.52
2023-05-06T20:23:18.457Z,98567.09
2023-05-06T20:25:45.990Z,98566.73
2023-05-06T20:28:13.575Z,98568.23
2023-05-06T20:30:41.248Z,98567.02
2023-05-06T20:33:09.007Z,98571.81
2023-05-06T20:35:36.776Z,98573.01
2023-05-06T20:38:04.446Z,98573.52
2023-05-06T20:40:34.029Z,98576.13
2023-05-06T20:43:01.609Z,98569.63
2023-05-06T20:45:29.227Z,98568.80
2023-05-06T20:47:57.113Z,98572.73
2023-05-06T20:50:24.725Z,98572.74
2023-05-06T20:52:52.259Z,98571.91
2023-05-06T20:55:20.118Z,98572.77
2023-05-06T20:57:47.653Z,98576.52
2023-05-06T21:00:15.321Z,98584.03
2023-05-06T21:02:43.006Z,98585.53
2023-05-06T21:05:11.243Z,98584.69
2023-05-06T21:07:39.123Z,98583.67
2023-05-06T21:10:07.001Z,98582.48
2023-05-06T21:12:34.583Z,98585.05
2023-05-06T21:15:02.458Z,98585.76
2023-05-06T21:17:30.089Z,98589.05
2023-05-06T21:19:57.636Z,98589.48
2023-05-06T21:22:25.656Z,98588.98
2023-05-06T21:24:53.273Z,98591.57
2023-05-06T21:27:20.971Z,98591.77
2023-05-06T21:29:48.602Z,98593.51
2023-05-06T21:32:16.190Z,98593.72
2023-05-06T21:34:43.763Z,98592.55
2023-05-06T21:37:11.372Z,98594.14
2023-05-06T21:39:38.999Z,98593.38
2023-05-06T21:42:06.540Z,98595.88
2023-05-06T21:44:34.114Z,98597.50
2023-05-06T21:47:01.770Z,98601.35
2023-05-06T21:49:29.470Z,98599.72
2023-05-06T21:51:57.051Z,98600.10
2023-05-06T21:54:24.741Z,98593.73
2023-05-06T21:56:52.330Z,98599.44
2023-05-06T21:59:20.032Z,98603.24
2023-05-06T22:01:47.635Z,98605.00
2023-05-06T22:04:15.786Z,98602.17
2023-05-06T22:06:43.334Z,98603.94
2023-05-06T22:09:10.873Z,98604.75
2023-05-06T22:11:38.642Z,98600.89
2023-05-06T22:14:06.851Z,98602.66
2023-05-06T22:16:35.237Z,98604.09
2023-05-06T22:19:03.505Z,98599.86
2023-05-06T22:21:31.050Z,98598.48
2023-05-06T22:23:58.681Z,98595.05
2023-05-06T22:26:26.556Z,98595.91
2023-05-06T22:28:57.100Z,98599.95
2023-05-06T22:31:25.184Z,98601.03
2023-05-06T22:33:54.939Z,98606.77
2023-05-06T22:36:22.536Z,98604.33
2023-05-06T22:38:50.122Z,98605.52
2023-05-06T22:41:17.698Z,98605.52
2023-05-06T22:43:45.502Z,98607.39
2023-05-06T22:46:13.794Z,98612.77
2023-05-06T22:48:41.343Z,98616.77
2023-05-06T22:51:08.905Z,98614.89
2023-05-06T22:53:36.752Z,98611.09
2023-05-06T22:56:04.526Z,98613.95
2023-05-06T22:58:32.137Z,98608.77
2023-05-06T23:01:00.147Z,98606.46
2023-05-06T23:03:27.897Z,98606.42
2023-05-06T23:05:55.634Z,98604.25
2023-05-06T23:08:23.186Z,98608.05
2023-05-06T23:10:50.732Z,98608.81
2023-05-06T23:13:18.329Z,98612.38
2023-05-06T23:15:45.888Z,98612.81
2023-05-06T23:18:13.468Z,98614.46
2023-05-06T23:20:40.986Z,98615.95
2023-05-06T23:23:08.498Z,98619.77
2023-05-06T23:25:36.439Z,98619.99
2023-05-06T23:28:04.127Z,98619.50
2023-05-06T23:30:31.682Z,98619.88
2023-05-06T23:32:59.260Z,98623.85
2023-05-06T23:35:26.821Z,98629.23
2023-05-06T23:37:54.380Z,98624.67
2023-05-06T23:40:22.084Z,98621.92
2023-05-06T23:42:49.658Z,98625.04
2023-05-06T23:45:17.279Z,98633.30
2023-05-06T23:47:44.868Z,98635.91
2023-05-06T23:50:12.908Z,98635.86
2023-05-06T23:52:40.588Z,98632.66
2023-05-06T23:55:08.543Z,98632.85
2023-05-06T23:57:36.411Z,98633.60
